sensor_id;sensor_type;location;lat;lon;timestamp;P1;durP1;ratioP1;P2;durP2;ratioP2
63807;SDS011;49961;43.970;22.868;2023-05-02T00:00:25;10.90;;;4.13;;
63807;SDS011;49961;43.970;22.868;2023-05-02T00:01:27;10.43;;;4.20;;
63807;SDS011;49961;43.970;22.868;2023-05-02T00:02:27;8.30;;;4.00;;
63807;SDS011;49961;43.970;22.868;2023-05-02T00:03:28;7.20;;;4.00;;
63807;SDS011;49961;43.970;22.868;2023-05-02T00:04:28;6.20;;;4.10;;
63807;SDS011;49961;43.970;22.868;2023-05-02T00:05:29;9.63;;;4.70;;
63807;SDS011;49961;43.970;22.868;2023-05-02T00:06:29;12.40;;;5.30;;
63807;SDS011;49961;43.970;22.868;2023-05-02T00:07:31;14.10;;;5.10;;
63807;SDS011;49961;43.970;22.868;2023-05-02T00:08:31;11.27;;;4.93;;
63807;SDS011;49961;43.970;22.868;2023-05-02T00:09:32;9.63;;;4.93;;
63807;SDS011;49961;43.970;22.868;2023-05-02T00:10:32;11.33;;;4.57;;
63807;SDS011;49961;43.970;22.868;2023-05-02T00:11:33;8.73;;;4.40;;
63807;SDS011;49961;43.970;22.868;2023-05-02T00:12:33;6.10;;;4.00;;
63807;SDS011;49961;43.970;22.868;2023-05-02T00:13:34;8.70;;;4.50;;
63807;SDS011;49961;43.970;22.868;2023-05-02T00:14:34;8.70;;;4.43;;
63807;SDS011;49961;43.970;22.868;2023-05-02T00:15:35;5.70;;;4.10;;
63807;SDS011;49961;43.970;22.868;2023-05-02T00:16:35;5.63;;;4.00;;
63807;SDS011;49961;43.970;22.868;2023-05-02T00:17:36;6.97;;;4.20;;
63807;SDS011;49961;43.970;22.868;2023-05-02T00:18:39;6.47;;;3.60;;
63807;SDS011;49961;43.970;22.868;2023-05-02T00:19:39;8.87;;;4.20;;
63807;SDS011;49961;43.970;22.868;2023-05-02T00:20:40;7.27;;;4.30;;
63807;SDS011;49961;43.970;22.868;2023-05-02T00:21:41;6.77;;;4.33;;
63807;SDS011;49961;43.970;22.868;2023-05-02T00:22:41;5.87;;;3.90;;
63807;SDS011;49961;43.970;22.868;2023-05-02T00:23:41;6.97;;;4.10;;
63807;SDS011;49961;43.970;22.868;2023-05-02T00:24:42;7.17;;;3.93;;
63807;SDS011;49961;43.970;22.868;2023-05-02T00:25:43;5.97;;;4.00;;
63807;SDS011;49961;43.970;22.868;2023-05-02T00:26:44;7.33;;;4.33;;
63807;SDS011;49961;43.970;22.868;2023-05-02T00:27:45;6.40;;;4.17;;
63807;SDS011;49961;43.970;22.868;2023-05-02T00:28:45;9.23;;;4.10;;
63807;SDS011;49961;43.970;22.868;2023-05-02T00:29:46;6.23;;;4.17;;
63807;SDS011;49961;43.970;22.868;2023-05-02T00:30:46;6.77;;;3.90;;
63807;SDS011;49961;43.970;22.868;2023-05-02T00:31:47;7.63;;;4.00;;
63807;SDS011;49961;43.970;22.868;2023-05-02T00:32:47;5.93;;;3.77;;
63807;SDS011;49961;43.970;22.868;2023-05-02T00:33:48;6.60;;;3.80;;
63807;SDS011;49961;43.970;22.868;2023-05-02T00:34:48;6.07;;;3.93;;
63807;SDS011;49961;43.970;22.868;2023-05-02T00:35:49;6.83;;;3.67;;
63807;SDS011;49961;43.970;22.868;2023-05-02T00:36:50;6.57;;;3.90;;
63807;SDS011;49961;43.970;22.868;2023-05-02T00:37:50;6.50;;;3.43;;
63807;SDS011;49961;43.970;22.868;2023-05-02T00:38:51;4.83;;;3.70;;
63807;SDS011;49961;43.970;22.868;2023-05-02T00:39:51;4.73;;;3.50;;
63807;SDS011;49961;43.970;22.868;2023-05-02T00:40:51;4.57;;;3.40;;
63807;SDS011;49961;43.970;22.868;2023-05-02T00:41:58;5.83;;;3.70;;
63807;SDS011;49961;43.970;22.868;2023-05-02T00:42:59;7.20;;;4.37;;
63807;SDS011;49961;43.970;22.868;2023-05-02T00:43:59;7.67;;;3.97;;
63807;SDS011;49961;43.970;22.868;2023-05-02T00:44:59;8.37;;;3.90;;
63807;SDS011;49961;43.970;22.868;2023-05-02T00:46:00;7.73;;;4.03;;
63807;SDS011;49961;43.970;22.868;2023-05-02T00:47:01;7.33;;;4.27;;
63807;SDS011;49961;43.970;22.868;2023-05-02T00:48:02;6.20;;;3.70;;
63807;SDS011;49961;43.970;22.868;2023-05-02T00:49:02;8.43;;;4.23;;
63807;SDS011;49961;43.970;22.868;2023-05-02T00:50:03;7.43;;;4.33;;
63807;SDS011;49961;43.970;22.868;2023-05-02T00:51:04;7.37;;;4.13;;
63807;SDS011;49961;43.970;22.868;2023-05-02T00:52:05;4.93;;;3.73;;
63807;SDS011;49961;43.970;22.868;2023-05-02T00:53:07;5.83;;;4.07;;
63807;SDS011;49961;43.970;22.868;2023-05-02T00:54:08;11.67;;;4.20;;
63807;SDS011;49961;43.970;22.868;2023-05-02T00:55:09;8.57;;;4.30;;
63807;SDS011;49961;43.970;22.868;2023-05-02T00:56:10;11.57;;;4.30;;
63807;SDS011;49961;43.970;22.868;2023-05-02T00:57:10;10.07;;;4.57;;
63807;SDS011;49961;43.970;22.868;2023-05-02T00:58:11;13.60;;;5.17;;
63807;SDS011;49961;43.970;22.868;2023-05-02T00:59:14;12.73;;;4.20;;
63807;SDS011;49961;43.970;22.868;2023-05-02T01:00:15;11.63;;;4.57;;
63807;SDS011;49961;43.970;22.868;2023-05-02T01:02:25;8.83;;;4.50;;
63807;SDS011;49961;43.970;22.868;2023-05-02T01:03:38;7.07;;;3.90;;
63807;SDS011;49961;43.970;22.868;2023-05-02T01:06:07;7.60;;;3.67;;
63807;SDS011;49961;43.970;22.868;2023-05-02T01:11:15;8.90;;;4.30;;
63807;SDS011;49961;43.970;22.868;2023-05-02T01:12:30;12.13;;;4.07;;
63807;SDS011;49961;43.970;22.868;2023-05-02T01:13:37;7.67;;;4.00;;
63807;SDS011;49961;43.970;22.868;2023-05-02T01:14:43;8.03;;;4.00;;
63807;SDS011;49961;43.970;22.868;2023-05-02T01:15:48;10.40;;;4.00;;
63807;SDS011;49961;43.970;22.868;2023-05-02T01:16:50;8.50;;;4.53;;
63807;SDS011;49961;43.970;22.868;2023-05-02T01:17:52;10.63;;;4.10;;
63807;SDS011;49961;43.970;22.868;2023-05-02T01:18:55;6.90;;;4.47;;
63807;SDS011;49961;43.970;22.868;2023-05-02T01:19:59;7.57;;;4.07;;
63807;SDS011;49961;43.970;22.868;2023-05-02T01:21:05;7.77;;;4.10;;
63807;SDS011;49961;43.970;22.868;2023-05-02T01:22:08;9.90;;;4.37;;
63807;SDS011;49961;43.970;22.868;2023-05-02T01:23:16;5.57;;;3.87;;
63807;SDS011;49961;43.970;22.868;2023-05-02T01:27:30;5.77;;;3.73;;
63807;SDS011;49961;43.970;22.868;2023-05-02T01:30:06;4.93;;;3.80;;
63807;SDS011;49961;43.970;22.868;2023-05-02T01:31:08;7.77;;;4.20;;
63807;SDS011;49961;43.970;22.868;2023-05-02T01:32:10;8.40;;;3.90;;
63807;SDS011;49961;43.970;22.868;2023-05-02T01:33:14;5.23;;;3.73;;
63807;SDS011;49961;43.970;22.868;2023-05-02T01:34:18;4.80;;;3.90;;
63807;SDS011;49961;43.970;22.868;2023-05-02T01:35:20;6.27;;;4.13;;
63807;SDS011;49961;43.970;22.868;2023-05-02T01:36:23;6.30;;;3.87;;
63807;SDS011;49961;43.970;22.868;2023-05-02T01:37:26;6.67;;;3.80;;
63807;SDS011;49961;43.970;22.868;2023-05-02T01:38:28;7.47;;;4.10;;
63807;SDS011;49961;43.970;22.868;2023-05-02T01:39:29;8.63;;;3.40;;
63807;SDS011;49961;43.970;22.868;2023-05-02T01:40:31;7.40;;;3.83;;
63807;SDS011;49961;43.970;22.868;2023-05-02T01:41:33;6.67;;;3.77;;
63807;SDS011;49961;43.970;22.868;2023-05-02T01:42:36;5.07;;;3.17;;
63807;SDS011;49961;43.970;22.868;2023-05-02T01:43:39;5.97;;;3.30;;
63807;SDS011;49961;43.970;22.868;2023-05-02T01:44:41;7.70;;;3.50;;
63807;SDS011;49961;43.970;22.868;2023-05-02T01:45:44;6.93;;;4.00;;
63807;SDS011;49961;43.970;22.868;2023-05-02T01:46:47;5.70;;;3.93;;
63807;SDS011;49961;43.970;22.868;2023-05-02T01:47:50;8.00;;;4.10;;
63807;SDS011;49961;43.970;22.868;2023-05-02T01:48:52;10.00;;;4.10;;
63807;SDS011;49961;43.970;22.868;2023-05-02T01:49:57;9.00;;;4.70;;
63807;SDS011;49961;43.970;22.868;2023-05-02T01:50:59;7.63;;;4.00;;
63807;SDS011;49961;43.970;22.868;2023-05-02T01:52:02;6.03;;;4.27;;
63807;SDS011;49961;43.970;22.868;2023-05-02T01:53:06;6.70;;;4.37;;
63807;SDS011;49961;43.970;22.868;2023-05-02T01:54:10;5.47;;;4.00;;
63807;SDS011;49961;43.970;22.868;2023-05-02T01:55:13;5.80;;;4.43;;
63807;SDS011;49961;43.970;22.868;2023-05-02T01:56:16;5.50;;;4.30;;
63807;SDS011;49961;43.970;22.868;2023-05-02T01:57:18;5.60;;;4.07;;
63807;SDS011;49961;43.970;22.868;2023-05-02T01:58:19;6.27;;;4.30;;
63807;SDS011;49961;43.970;22.868;2023-05-02T01:59:21;5.77;;;3.70;;
63807;SDS011;49961;43.970;22.868;2023-05-02T02:00:22;5.37;;;4.20;;
63807;SDS011;49961;43.970;22.868;2023-05-02T02:01:24;6.77;;;4.50;;
63807;SDS011;49961;43.970;22.868;2023-05-02T02:02:27;6.40;;;4.40;;
63807;SDS011;49961;43.970;22.868;2023-05-02T02:03:30;8.33;;;4.50;;
63807;SDS011;49961;43.970;22.868;2023-05-02T02:04:30;5.87;;;4.30;;
63807;SDS011;49961;43.970;22.868;2023-05-02T02:05:34;5.77;;;4.20;;
63807;SDS011;49961;43.970;22.868;2023-05-02T02:06:36;5.27;;;4.10;;
63807;SDS011;49961;43.970;22.868;2023-05-02T02:07:38;6.27;;;4.43;;
63807;SDS011;49961;43.970;22.868;2023-05-02T02:08:39;6.30;;;4.10;;
63807;SDS011;49961;43.970;22.868;2023-05-02T02:09:39;6.70;;;4.40;;
63807;SDS011;49961;43.970;22.868;2023-05-02T02:10:42;6.43;;;4.50;;
63807;SDS011;49961;43.970;22.868;2023-05-02T02:11:46;6.53;;;4.10;;
63807;SDS011;49961;43.970;22.868;2023-05-02T02:12:52;6.47;;;4.10;;
63807;SDS011;49961;43.970;22.868;2023-05-02T02:13:59;6.33;;;4.40;;
63807;SDS011;49961;43.970;22.868;2023-05-02T02:16:05;5.87;;;4.67;;
63807;SDS011;49961;43.970;22.868;2023-05-02T02:17:21;14.50;;;5.10;;
63807;SDS011;49961;43.970;22.868;2023-05-02T02:18:25;18.27;;;6.03;;
63807;SDS011;49961;43.970;22.868;2023-05-02T02:19:28;19.93;;;6.00;;
63807;SDS011;49961;43.970;22.868;2023-05-02T02:20:31;16.30;;;5.40;;
63807;SDS011;49961;43.970;22.868;2023-05-02T02:21:31;16.53;;;5.20;;
63807;SDS011;49961;43.970;22.868;2023-05-02T02:22:36;12.43;;;5.13;;
63807;SDS011;49961;43.970;22.868;2023-05-02T02:23:38;16.53;;;5.60;;
63807;SDS011;49961;43.970;22.868;2023-05-02T02:24:42;12.03;;;5.53;;
63807;SDS011;49961;43.970;22.868;2023-05-02T02:25:44;17.73;;;4.73;;
63807;SDS011;49961;43.970;22.868;2023-05-02T02:26:45;9.97;;;4.60;;
63807;SDS011;49961;43.970;22.868;2023-05-02T02:27:46;9.73;;;4.47;;
63807;SDS011;49961;43.970;22.868;2023-05-02T02:28:46;9.37;;;4.60;;
63807;SDS011;49961;43.970;22.868;2023-05-02T02:29:47;10.10;;;4.30;;
63807;SDS011;49961;43.970;22.868;2023-05-02T02:30:48;11.17;;;5.27;;
63807;SDS011;49961;43.970;22.868;2023-05-02T02:31:49;10.10;;;5.03;;
63807;SDS011;49961;43.970;22.868;2023-05-02T02:32:49;10.37;;;4.50;;
63807;SDS011;49961;43.970;22.868;2023-05-02T02:33:50;8.30;;;4.60;;
63807;SDS011;49961;43.970;22.868;2023-05-02T02:34:50;7.10;;;4.53;;
63807;SDS011;49961;43.970;22.868;2023-05-02T02:35:52;11.70;;;5.07;;
63807;SDS011;49961;43.970;22.868;2023-05-02T02:37:04;16.30;;;5.63;;
63807;SDS011;49961;43.970;22.868;2023-05-02T02:38:25;12.43;;;5.67;;
63807;SDS011;49961;43.970;22.868;2023-05-02T02:39:38;12.30;;;4.40;;
63807;SDS011;49961;43.970;22.868;2023-05-02T02:41:00;14.30;;;4.60;;
63807;SDS011;49961;43.970;22.868;2023-05-02T02:42:28;8.77;;;4.23;;
63807;SDS011;49961;43.970;22.868;2023-05-02T02:45:01;7.83;;;4.30;;
63807;SDS011;49961;43.970;22.868;2023-05-02T02:47:00;7.43;;;4.27;;
63807;SDS011;49961;43.970;22.868;2023-05-02T02:49:31;8.90;;;4.50;;
63807;SDS011;49961;43.970;22.868;2023-05-02T02:50:55;7.80;;;4.40;;
63807;SDS011;49961;43.970;22.868;2023-05-02T02:53:49;9.80;;;4.60;;
63807;SDS011;49961;43.970;22.868;2023-05-02T02:56:40;7.87;;;5.00;;
63807;SDS011;49961;43.970;22.868;2023-05-02T02:57:46;7.10;;;4.50;;
63807;SDS011;49961;43.970;22.868;2023-05-02T02:59:19;8.13;;;4.57;;
63807;SDS011;49961;43.970;22.868;2023-05-02T03:00:26;8.30;;;4.27;;
63807;SDS011;49961;43.970;22.868;2023-05-02T03:01:29;7.03;;;4.10;;
63807;SDS011;49961;43.970;22.868;2023-05-02T03:02:31;7.63;;;4.10;;
63807;SDS011;49961;43.970;22.868;2023-05-02T03:03:33;5.80;;;4.30;;
63807;SDS011;49961;43.970;22.868;2023-05-02T03:04:37;7.57;;;4.20;;
63807;SDS011;49961;43.970;22.868;2023-05-02T03:05:41;6.27;;;4.60;;
63807;SDS011;49961;43.970;22.868;2023-05-02T03:06:43;8.20;;;4.37;;
63807;SDS011;49961;43.970;22.868;2023-05-02T03:07:43;9.37;;;4.20;;
63807;SDS011;49961;43.970;22.868;2023-05-02T03:08:44;7.73;;;4.40;;
63807;SDS011;49961;43.970;22.868;2023-05-02T03:09:45;7.53;;;4.33;;
63807;SDS011;49961;43.970;22.868;2023-05-02T03:10:46;8.47;;;4.90;;
63807;SDS011;49961;43.970;22.868;2023-05-02T03:11:47;6.63;;;4.40;;
63807;SDS011;49961;43.970;22.868;2023-05-02T03:12:47;6.23;;;4.80;;
63807;SDS011;49961;43.970;22.868;2023-05-02T03:13:48;8.80;;;4.23;;
63807;SDS011;49961;43.970;22.868;2023-05-02T03:14:48;8.53;;;4.77;;
63807;SDS011;49961;43.970;22.868;2023-05-02T03:16:52;11.27;;;4.80;;
63807;SDS011;49961;43.970;22.868;2023-05-02T03:17:54;8.33;;;4.50;;
63807;SDS011;49961;43.970;22.868;2023-05-02T03:18:55;9.10;;;4.37;;
63807;SDS011;49961;43.970;22.868;2023-05-02T03:19:55;5.53;;;4.20;;
63807;SDS011;49961;43.970;22.868;2023-05-02T03:20:56;8.63;;;4.40;;
63807;SDS011;49961;43.970;22.868;2023-05-02T03:21:56;9.67;;;4.10;;
63807;SDS011;49961;43.970;22.868;2023-05-02T03:22:57;9.00;;;4.03;;
63807;SDS011;49961;43.970;22.868;2023-05-02T03:23:58;9.77;;;5.00;;
63807;SDS011;49961;43.970;22.868;2023-05-02T03:24:59;14.47;;;5.20;;
63807;SDS011;49961;43.970;22.868;2023-05-02T03:26:00;11.63;;;5.27;;
63807;SDS011;49961;43.970;22.868;2023-05-02T03:27:01;10.23;;;5.17;;
63807;SDS011;49961;43.970;22.868;2023-05-02T03:28:02;9.60;;;5.17;;
63807;SDS011;49961;43.970;22.868;2023-05-02T03:29:02;7.30;;;4.70;;
63807;SDS011;49961;43.970;22.868;2023-05-02T03:30:03;10.63;;;4.93;;
63807;SDS011;49961;43.970;22.868;2023-05-02T03:31:04;7.23;;;4.47;;
63807;SDS011;49961;43.970;22.868;2023-05-02T03:32:05;7.90;;;4.63;;
63807;SDS011;49961;43.970;22.868;2023-05-02T03:33:05;10.10;;;5.07;;
63807;SDS011;49961;43.970;22.868;2023-05-02T03:34:07;7.13;;;4.43;;
63807;SDS011;49961;43.970;22.868;2023-05-02T03:35:08;7.40;;;5.13;;
63807;SDS011;49961;43.970;22.868;2023-05-02T03:36:08;12.83;;;5.13;;
63807;SDS011;49961;43.970;22.868;2023-05-02T03:37:10;9.90;;;5.40;;
63807;SDS011;49961;43.970;22.868;2023-05-02T03:38:10;10.90;;;5.20;;
63807;SDS011;49961;43.970;22.868;2023-05-02T03:39:10;9.27;;;5.07;;
63807;SDS011;49961;43.970;22.868;2023-05-02T03:40:11;10.60;;;5.33;;
63807;SDS011;49961;43.970;22.868;2023-05-02T03:41:11;13.13;;;5.30;;
63807;SDS011;49961;43.970;22.868;2023-05-02T03:42:12;9.03;;;5.10;;
63807;SDS011;49961;43.970;22.868;2023-05-02T03:43:12;15.33;;;5.80;;
63807;SDS011;49961;43.970;22.868;2023-05-02T03:44:13;17.63;;;5.87;;
63807;SDS011;49961;43.970;22.868;2023-05-02T03:45:13;20.73;;;7.20;;
63807;SDS011;49961;43.970;22.868;2023-05-02T03:46:14;19.17;;;7.40;;
63807;SDS011;49961;43.970;22.868;2023-05-02T03:47:14;25.33;;;6.70;;
63807;SDS011;49961;43.970;22.868;2023-05-02T03:48:15;17.87;;;6.07;;
63807;SDS011;49961;43.970;22.868;2023-05-02T03:49:15;16.93;;;6.00;;
63807;SDS011;49961;43.970;22.868;2023-05-02T03:50:16;13.50;;;6.00;;
63807;SDS011;49961;43.970;22.868;2023-05-02T03:51:17;12.67;;;5.17;;
63807;SDS011;49961;43.970;22.868;2023-05-02T03:52:17;9.47;;;5.07;;
63807;SDS011;49961;43.970;22.868;2023-05-02T03:53:18;9.80;;;4.63;;
63807;SDS011;49961;43.970;22.868;2023-05-02T03:54:18;8.40;;;5.00;;
63807;SDS011;49961;43.970;22.868;2023-05-02T03:55:19;9.03;;;4.60;;
63807;SDS011;49961;43.970;22.868;2023-05-02T03:56:20;10.10;;;4.72;;
63807;SDS011;49961;43.970;22.868;2023-05-02T03:57:20;6.83;;;4.60;;
63807;SDS011;49961;43.970;22.868;2023-05-02T03:58:21;7.30;;;4.27;;
63807;SDS011;49961;43.970;22.868;2023-05-02T03:59:22;8.97;;;4.83;;
63807;SDS011;49961;43.970;22.868;2023-05-02T04:00:22;8.50;;;5.10;;
63807;SDS011;49961;43.970;22.868;2023-05-02T04:01:23;8.93;;;4.87;;
63807;SDS011;49961;43.970;22.868;2023-05-02T04:02:23;7.73;;;5.07;;
63807;SDS011;49961;43.970;22.868;2023-05-02T04:03:24;8.83;;;5.10;;
63807;SDS011;49961;43.970;22.868;2023-05-02T04:04:24;11.20;;;5.43;;
63807;SDS011;49961;43.970;22.868;2023-05-02T04:05:25;12.60;;;5.00;;
63807;SDS011;49961;43.970;22.868;2023-05-02T04:06:25;11.97;;;4.87;;
63807;SDS011;49961;43.970;22.868;2023-05-02T04:07:25;8.87;;;4.67;;
63807;SDS011;49961;43.970;22.868;2023-05-02T04:08:26;8.60;;;5.27;;
63807;SDS011;49961;43.970;22.868;2023-05-02T04:09:26;7.80;;;4.10;;
63807;SDS011;49961;43.970;22.868;2023-05-02T04:10:27;10.07;;;5.00;;
63807;SDS011;49961;43.970;22.868;2023-05-02T04:11:27;14.03;;;4.93;;
63807;SDS011;49961;43.970;22.868;2023-05-02T04:12:28;10.33;;;4.90;;
63807;SDS011;49961;43.970;22.868;2023-05-02T04:13:28;10.70;;;5.20;;
63807;SDS011;49961;43.970;22.868;2023-05-02T04:14:28;11.70;;;4.60;;
63807;SDS011;49961;43.970;22.868;2023-05-02T04:15:30;10.17;;;5.20;;
63807;SDS011;49961;43.970;22.868;2023-05-02T04:16:30;14.07;;;5.10;;
63807;SDS011;49961;43.970;22.868;2023-05-02T04:17:31;12.57;;;5.00;;
63807;SDS011;49961;43.970;22.868;2023-05-02T04:18:31;22.53;;;5.70;;
63807;SDS011;49961;43.970;22.868;2023-05-02T04:19:32;15.80;;;5.67;;
63807;SDS011;49961;43.970;22.868;2023-05-02T04:20:33;15.60;;;6.47;;
63807;SDS011;49961;43.970;22.868;2023-05-02T04:21:35;13.20;;;6.53;;
63807;SDS011;49961;43.970;22.868;2023-05-02T04:22:36;13.80;;;5.88;;
63807;SDS011;49961;43.970;22.868;2023-05-02T04:23:38;14.10;;;5.33;;
63807;SDS011;49961;43.970;22.868;2023-05-02T04:24:39;12.20;;;5.57;;
63807;SDS011;49961;43.970;22.868;2023-05-02T04:25:39;17.23;;;5.53;;
63807;SDS011;49961;43.970;22.868;2023-05-02T04:26:40;16.83;;;6.20;;
63807;SDS011;49961;43.970;22.868;2023-05-02T04:27:40;13.13;;;5.80;;
63807;SDS011;49961;43.970;22.868;2023-05-02T04:28:41;12.00;;;6.00;;
63807;SDS011;49961;43.970;22.868;2023-05-02T04:29:42;13.43;;;5.83;;
63807;SDS011;49961;43.970;22.868;2023-05-02T04:30:42;12.37;;;5.23;;
63807;SDS011;49961;43.970;22.868;2023-05-02T04:31:43;8.93;;;5.33;;
63807;SDS011;49961;43.970;22.868;2023-05-02T04:32:43;11.97;;;6.00;;
63807;SDS011;49961;43.970;22.868;2023-05-02T04:33:44;12.80;;;5.73;;
63807;SDS011;49961;43.970;22.868;2023-05-02T04:34:44;12.10;;;6.40;;
63807;SDS011;49961;43.970;22.868;2023-05-02T04:35:45;16.17;;;6.63;;
63807;SDS011;49961;43.970;22.868;2023-05-02T04:36:45;16.60;;;6.60;;
63807;SDS011;49961;43.970;22.868;2023-05-02T04:37:46;12.87;;;6.97;;
63807;SDS011;49961;43.970;22.868;2023-05-02T04:38:46;14.73;;;7.23;;
63807;SDS011;49961;43.970;22.868;2023-05-02T04:39:47;18.17;;;8.47;;
63807;SDS011;49961;43.970;22.868;2023-05-02T04:40:49;19.27;;;8.40;;
63807;SDS011;49961;43.970;22.868;2023-05-02T04:41:50;10.30;;;7.47;;
63807;SDS011;49961;43.970;22.868;2023-05-02T04:42:51;16.13;;;6.53;;
63807;SDS011;49961;43.970;22.868;2023-05-02T04:43:51;10.33;;;5.77;;
63807;SDS011;49961;43.970;22.868;2023-05-02T04:44:52;15.13;;;6.77;;
63807;SDS011;49961;43.970;22.868;2023-05-02T04:45:52;7.90;;;5.90;;
63807;SDS011;49961;43.970;22.868;2023-05-02T04:46:53;10.30;;;6.33;;
63807;SDS011;49961;43.970;22.868;2023-05-02T04:47:53;11.83;;;6.30;;
63807;SDS011;49961;43.970;22.868;2023-05-02T04:48:53;10.73;;;6.00;;
63807;SDS011;49961;43.970;22.868;2023-05-02T04:49:54;13.87;;;5.57;;
63807;SDS011;49961;43.970;22.868;2023-05-02T04:50:54;13.23;;;7.50;;
63807;SDS011;49961;43.970;22.868;2023-05-02T04:51:55;13.60;;;9.27;;
63807;SDS011;49961;43.970;22.868;2023-05-02T04:52:55;16.43;;;9.33;;
63807;SDS011;49961;43.970;22.868;2023-05-02T04:53:56;12.17;;;8.53;;
63807;SDS011;49961;43.970;22.868;2023-05-02T04:54:56;6.90;;;5.00;;
63807;SDS011;49961;43.970;22.868;2023-05-02T04:55:57;8.13;;;4.53;;
63807;SDS011;49961;43.970;22.868;2023-05-02T04:56:57;6.80;;;4.13;;
63807;SDS011;49961;43.970;22.868;2023-05-02T04:57:58;5.43;;;4.10;;
63807;SDS011;49961;43.970;22.868;2023-05-02T04:58:58;5.47;;;4.17;;
63807;SDS011;49961;43.970;22.868;2023-05-02T04:59:59;7.67;;;4.97;;
63807;SDS011;49961;43.970;22.868;2023-05-02T05:00:59;9.20;;;6.70;;
63807;SDS011;49961;43.970;22.868;2023-05-02T05:02:01;9.47;;;6.93;;
63807;SDS011;49961;43.970;22.868;2023-05-02T05:03:01;9.13;;;5.87;;
63807;SDS011;49961;43.970;22.868;2023-05-02T05:04:02;8.47;;;4.53;;
63807;SDS011;49961;43.970;22.868;2023-05-02T05:05:02;6.00;;;4.10;;
63807;SDS011;49961;43.970;22.868;2023-05-02T05:06:03;5.97;;;4.33;;
63807;SDS011;49961;43.970;22.868;2023-05-02T05:07:04;7.40;;;4.43;;
63807;SDS011;49961;43.970;22.868;2023-05-02T05:08:04;5.67;;;4.23;;
63807;SDS011;49961;43.970;22.868;2023-05-02T05:09:05;7.17;;;4.30;;
63807;SDS011;49961;43.970;22.868;2023-05-02T05:10:05;5.77;;;4.30;;
63807;SDS011;49961;43.970;22.868;2023-05-02T05:11:07;11.10;;;4.70;;
63807;SDS011;49961;43.970;22.868;2023-05-02T05:12:07;7.47;;;4.43;;
63807;SDS011;49961;43.970;22.868;2023-05-02T05:13:08;9.10;;;4.47;;
63807;SDS011;49961;43.970;22.868;2023-05-02T05:14:08;7.20;;;3.83;;
63807;SDS011;49961;43.970;22.868;2023-05-02T05:15:09;6.30;;;4.20;;
63807;SDS011;49961;43.970;22.868;2023-05-02T05:16:10;5.97;;;4.20;;
63807;SDS011;49961;43.970;22.868;2023-05-02T05:17:11;4.33;;;3.90;;
63807;SDS011;49961;43.970;22.868;2023-05-02T05:18:11;7.87;;;4.00;;
63807;SDS011;49961;43.970;22.868;2023-05-02T05:19:11;7.77;;;4.60;;
63807;SDS011;49961;43.970;22.868;2023-05-02T05:20:12;6.53;;;4.43;;
63807;SDS011;49961;43.970;22.868;2023-05-02T05:21:12;7.13;;;4.43;;
63807;SDS011;49961;43.970;22.868;2023-05-02T05:22:13;5.97;;;4.50;;
63807;SDS011;49961;43.970;22.868;2023-05-02T05:23:14;8.47;;;4.40;;
63807;SDS011;49961;43.970;22.868;2023-05-02T05:24:15;6.83;;;4.30;;
63807;SDS011;49961;43.970;22.868;2023-05-02T05:25:15;7.37;;;4.33;;
63807;SDS011;49961;43.970;22.868;2023-05-02T05:26:15;5.20;;;4.07;;
63807;SDS011;49961;43.970;22.868;2023-05-02T05:27:16;7.30;;;3.80;;
63807;SDS011;49961;43.970;22.868;2023-05-02T05:28:16;6.93;;;4.07;;
63807;SDS011;49961;43.970;22.868;2023-05-02T05:29:17;5.67;;;4.50;;
63807;SDS011;49961;43.970;22.868;2023-05-02T05:30:18;10.10;;;4.40;;
63807;SDS011;49961;43.970;22.868;2023-05-02T05:31:18;7.40;;;4.20;;
63807;SDS011;49961;43.970;22.868;2023-05-02T05:32:19;7.83;;;4.03;;
63807;SDS011;49961;43.970;22.868;2023-05-02T05:33:19;7.93;;;4.30;;
63807;SDS011;49961;43.970;22.868;2023-05-02T05:34:19;5.57;;;4.00;;
63807;SDS011;49961;43.970;22.868;2023-05-02T05:35:20;8.13;;;4.13;;
63807;SDS011;49961;43.970;22.868;2023-05-02T05:36:20;5.33;;;3.90;;
63807;SDS011;49961;43.970;22.868;2023-05-02T05:37:21;5.93;;;3.73;;
63807;SDS011;49961;43.970;22.868;2023-05-02T05:38:21;7.10;;;3.97;;
63807;SDS011;49961;43.970;22.868;2023-05-02T05:39:22;6.33;;;4.00;;
63807;SDS011;49961;43.970;22.868;2023-05-02T05:40:24;5.17;;;3.90;;
63807;SDS011;49961;43.970;22.868;2023-05-02T05:41:25;6.27;;;4.40;;
63807;SDS011;49961;43.970;22.868;2023-05-02T05:42:25;6.47;;;4.17;;
63807;SDS011;49961;43.970;22.868;2023-05-02T05:43:26;5.93;;;4.10;;
63807;SDS011;49961;43.970;22.868;2023-05-02T05:44:27;6.73;;;4.33;;
63807;SDS011;49961;43.970;22.868;2023-05-02T05:45:27;7.00;;;4.40;;
63807;SDS011;49961;43.970;22.868;2023-05-02T05:46:28;6.20;;;4.00;;
63807;SDS011;49961;43.970;22.868;2023-05-02T05:47:28;6.67;;;3.73;;
63807;SDS011;49961;43.970;22.868;2023-05-02T05:48:29;7.00;;;4.50;;
63807;SDS011;49961;43.970;22.868;2023-05-02T05:49:29;6.73;;;4.23;;
63807;SDS011;49961;43.970;22.868;2023-05-02T05:50:30;5.87;;;4.33;;
63807;SDS011;49961;43.970;22.868;2023-05-02T05:51:30;5.37;;;4.10;;
63807;SDS011;49961;43.970;22.868;2023-05-02T05:52:31;7.57;;;4.17;;
63807;SDS011;49961;43.970;22.868;2023-05-02T05:53:31;6.10;;;3.93;;
63807;SDS011;49961;43.970;22.868;2023-05-02T05:54:32;7.50;;;4.13;;
63807;SDS011;49961;43.970;22.868;2023-05-02T05:55:32;5.63;;;3.93;;
63807;SDS011;49961;43.970;22.868;2023-05-02T05:56:33;8.73;;;3.67;;
63807;SDS011;49961;43.970;22.868;2023-05-02T05:57:33;5.80;;;3.70;;
63807;SDS011;49961;43.970;22.868;2023-05-02T05:58:34;6.17;;;3.80;;
63807;SDS011;49961;43.970;22.868;2023-05-02T05:59:34;7.27;;;3.93;;
63807;SDS011;49961;43.970;22.868;2023-05-02T06:00:35;6.13;;;4.20;;
63807;SDS011;49961;43.970;22.868;2023-05-02T06:01:37;10.23;;;5.87;;
63807;SDS011;49961;43.970;22.868;2023-05-02T06:02:37;5.37;;;4.13;;
63807;SDS011;49961;43.970;22.868;2023-05-02T06:03:38;7.37;;;3.90;;
63807;SDS011;49961;43.970;22.868;2023-05-02T06:04:38;7.70;;;4.03;;
63807;SDS011;49961;43.970;22.868;2023-05-02T06:05:39;6.07;;;3.97;;
63807;SDS011;49961;43.970;22.868;2023-05-02T06:06:39;8.13;;;4.13;;
63807;SDS011;49961;43.970;22.868;2023-05-02T06:07:40;6.10;;;3.90;;
63807;SDS011;49961;43.970;22.868;2023-05-02T06:08:40;6.93;;;3.67;;
63807;SDS011;49961;43.970;22.868;2023-05-02T06:09:41;7.83;;;3.80;;
63807;SDS011;49961;43.970;22.868;2023-05-02T06:10:41;7.93;;;4.00;;
63807;SDS011;49961;43.970;22.868;2023-05-02T06:11:41;8.53;;;3.70;;
63807;SDS011;49961;43.970;22.868;2023-05-02T06:12:42;8.47;;;3.83;;
63807;SDS011;49961;43.970;22.868;2023-05-02T06:13:42;8.53;;;3.80;;
63807;SDS011;49961;43.970;22.868;2023-05-02T06:14:43;7.23;;;4.40;;
63807;SDS011;49961;43.970;22.868;2023-05-02T06:15:43;6.00;;;3.60;;
63807;SDS011;49961;43.970;22.868;2023-05-02T06:16:43;7.90;;;3.67;;
63807;SDS011;49961;43.970;22.868;2023-05-02T06:17:44;5.10;;;3.70;;
63807;SDS011;49961;43.970;22.868;2023-05-02T06:18:48;8.37;;;4.13;;
63807;SDS011;49961;43.970;22.868;2023-05-02T06:19:50;7.90;;;3.90;;
63807;SDS011;49961;43.970;22.868;2023-05-02T06:20:51;10.03;;;4.20;;
63807;SDS011;49961;43.970;22.868;2023-05-02T06:21:51;5.20;;;3.73;;
63807;SDS011;49961;43.970;22.868;2023-05-02T06:22:51;7.50;;;4.10;;
63807;SDS011;49961;43.970;22.868;2023-05-02T06:23:52;7.63;;;4.00;;
63807;SDS011;49961;43.970;22.868;2023-05-02T06:24:52;9.63;;;4.00;;
63807;SDS011;49961;43.970;22.868;2023-05-02T06:25:53;7.33;;;3.90;;